createdAt,value
2023-02-01T00:02:05.472Z,21.63
2023-02-01T00:04:30.973Z,33.63
2023-02-01T00:07:07.034Z,29.90
2023-02-01T00:09:40.078Z,27.35
2023-02-01T00:12:19.340Z,31.67
2023-02-01T00:14:49.755Z,27.63
2023-02-01T00:17:17.874Z,27.00
2023-02-01T00:19:50.777Z,28.02
2023-02-01T00:22:23.218Z,27.80
2023-02-01T00:24:54.348Z,33.08
2023-02-01T00:27:36.095Z,27.85
2023-02-01T00:30:12.664Z,26.42
2023-02-01T00:32:47.121Z,29.17
2023-02-01T00:35:17.293Z,29.35
2023-02-01T00:37:46.971Z,26.30
2023-02-01T00:40:14.961Z,26.42
2023-02-01T00:42:42.172Z,27.27
2023-02-01T00:45:12.380Z,29.05
2023-02-01T00:47:47.385Z,23.05
2023-02-01T00:50:17.724Z,26.33
2023-02-01T00:52:45.023Z,22.55
2023-02-01T00:55:16.539Z,26.85
2023-02-01T00:57:43.904Z,36.38
2023-02-01T01:00:14.698Z,29.48
2023-02-01T01:02:45.571Z,28.98
2023-02-01T01:05:14.695Z,29.33
2023-02-01T01:08:15.812Z,27.23
2023-02-01T01:10:46.256Z,25.30
2023-02-01T01:13:18.674Z,40.42
2023-02-01T01:15:46.619Z,38.40
2023-02-01T01:18:13.946Z,29.17
2023-02-01T01:20:48.000Z,36.40
2023-02-01T01:23:16.825Z,28.38
2023-02-01T01:25:48.110Z,37.17
2023-02-01T01:28:17.227Z,31.15
2023-02-01T01:30:50.194Z,30.83
2023-02-01T01:33:21.568Z,37.45
2023-02-01T01:35:51.461Z,27.67
2023-02-01T01:38:21.810Z,28.10
2023-02-01T01:40:51.812Z,30.27
2023-02-01T01:43:24.788Z,26.35
2023-02-01T01:45:55.649Z,24.50
2023-02-01T01:48:33.955Z,27.95
2023-02-01T01:51:24.908Z,28.10
2023-02-01T01:54:21.285Z,34.90
2023-02-01T01:57:02.488Z,28.60
2023-02-01T01:59:32.804Z,25.65
2023-02-01T02:02:12.591Z,25.80
2023-02-01T02:04:43.152Z,23.65
2023-02-01T02:07:50.923Z,27.73
2023-02-01T02:10:21.428Z,27.40
2023-02-01T02:12:59.253Z,24.17
2023-02-01T02:15:37.759Z,26.58
2023-02-01T02:18:28.647Z,22.08
2023-02-01T02:21:25.893Z,25.67
2023-02-01T02:24:07.994Z,29.50
2023-02-01T02:26:41.308Z,30.80
2023-02-01T02:29:51.366Z,25.77
2023-02-01T02:36:09.015Z,24.25
2023-02-01T02:38:59.009Z,28.10
2023-02-01T02:42:08.236Z,21.42
2023-02-01T02:45:09.850Z,25.42
2023-02-01T02:47:56.972Z,24.20
2023-02-01T02:50:56.259Z,27.40
2023-02-01T02:53:54.841Z,22.23
2023-02-01T02:56:45.474Z,23.02
2023-02-01T02:59:41.584Z,29.80
2023-02-01T03:02:34.528Z,30.25
2023-02-01T03:05:19.754Z,25.25
2023-02-01T03:07:57.464Z,23.92
2023-02-01T03:10:28.921Z,21.20
2023-02-01T03:13:01.983Z,22.83
2023-02-01T03:16:00.153Z,23.90
2023-02-01T03:18:37.321Z,22.65
2023-02-01T03:21:10.924Z,26.98
2023-02-01T03:26:21.960Z,24.00
2023-02-01T03:28:57.395Z,23.02
2023-02-01T03:31:33.101Z,26.05
2023-02-01T03:34:00.436Z,27.92
2023-02-01T03:36:35.066Z,23.65
2023-02-01T03:39:08.470Z,35.85
2023-02-01T03:42:04.838Z,33.05
2023-02-01T03:44:58.358Z,27.15
2023-02-01T03:47:36.882Z,25.92
2023-02-01T03:50:11.051Z,27.35
2023-02-01T03:52:55.367Z,24.20
2023-02-01T03:55:27.575Z,28.92
2023-02-01T03:58:04.598Z,27.42
2023-02-01T04:00:36.063Z,29.05
2023-02-01T04:03:10.475Z,26.63
2023-02-01T04:05:40.614Z,29.45
2023-02-01T04:08:09.585Z,26.08
2023-02-01T04:10:40.975Z,26.30
2023-02-01T04:13:12.016Z,28.45
2023-02-01T04:15:42.126Z,27.08
2023-02-01T04:18:09.613Z,25.08
2023-02-01T04:20:42.235Z,27.05
2023-02-01T04:23:09.524Z,30.15
2023-02-01T04:25:40.161Z,25.38
2023-02-01T04:28:17.768Z,24.52
2023-02-01T04:30:50.459Z,27.10
2023-02-01T04:33:19.700Z,18.80
2023-02-01T04:35:47.077Z,24.10
2023-02-01T04:38:21.733Z,29.27
2023-02-01T04:41:00.494Z,19.42
2023-02-01T04:43:28.792Z,25.90
2023-02-01T04:46:02.830Z,28.10
2023-02-01T04:48:30.185Z,25.35
2023-02-01T04:51:05.561Z,35.15
2023-02-01T04:53:33.458Z,24.65
2023-02-01T04:56:07.025Z,24.50
2023-02-01T04:58:34.809Z,20.25
2023-02-01T05:01:05.761Z,27.92
2023-02-01T05:03:38.825Z,27.58
2023-02-01T05:06:16.130Z,29.58
2023-02-01T05:08:51.836Z,29.48
2023-02-01T05:11:45.439Z,31.52
2023-02-01T05:14:17.074Z,33.50
2023-02-01T05:16:47.423Z,33.08
2023-02-01T05:19:14.911Z,34.22
2023-02-01T05:22:02.802Z,41.45
2023-02-01T05:24:30.141Z,31.90
2023-02-01T05:26:57.914Z,32.33
2023-02-01T05:29:27.708Z,30.30
2023-02-01T05:32:03.040Z,30.67
2023-02-01T05:34:41.789Z,29.88
2023-02-01T05:37:19.210Z,32.63
2023-02-01T05:42:40.890Z,28.98
2023-02-01T05:45:09.328Z,25.63
2023-02-01T05:47:40.605Z,37.95
2023-02-01T05:50:14.421Z,29.17
2023-02-01T05:52:53.890Z,27.65
2023-02-01T05:55:34.006Z,24.73
2023-02-01T05:58:01.756Z,30.77
2023-02-01T06:01:03.118Z,31.80
2023-02-01T06:03:30.865Z,27.58
2023-02-01T06:05:58.368Z,26.38
2023-02-01T06:08:27.050Z,29.50
2023-02-01T06:11:08.054Z,32.30
2023-02-01T06:16:08.863Z,24.05
2023-02-01T06:19:01.043Z,23.88
2023-02-01T06:21:31.242Z,24.30
2023-02-01T06:26:49.512Z,22.98
2023-02-01T06:29:19.059Z,29.55
2023-02-01T06:31:49.318Z,29.83
2023-02-01T06:34:16.677Z,33.75
2023-02-01T06:36:52.057Z,23.30
2023-02-01T06:39:32.699Z,27.90
2023-02-01T06:42:00.510Z,28.75
2023-02-01T06:44:54.960Z,37.03
2023-02-01T06:47:22.486Z,37.60
2023-02-01T06:49:50.830Z,38.50
2023-02-01T06:52:18.240Z,31.92
2023-02-01T06:54:58.539Z,32.42
2023-02-01T06:57:46.227Z,26.48
2023-02-01T07:00:18.409Z,27.00
2023-02-01T07:02:47.668Z,32.75
2023-02-01T07:05:18.092Z,36.60
2023-02-01T07:07:54.688Z,42.00
2023-02-01T07:10:33.202Z,25.35
2023-02-01T07:13:01.749Z,33.85
2023-02-01T07:15:52.666Z,38.20
2023-02-01T07:18:42.954Z,36.05
2023-02-01T07:21:25.478Z,33.42
2023-02-01T07:24:14.916Z,26.13
2023-02-01T07:26:49.280Z,25.95
2023-02-01T07:29:25.207Z,35.63
2023-02-01T07:37:30.084Z,30.05
2023-02-01T07:40:00.434Z,26.60
2023-02-01T07:42:53.520Z,29.55
2023-02-01T07:45:23.748Z,24.73
2023-02-01T07:47:56.017Z,24.80
2023-02-01T07:50:26.416Z,28.85
2023-02-01T07:52:55.794Z,30.27
2023-02-01T07:55:33.165Z,33.85
2023-02-01T07:58:02.428Z,29.25
2023-02-01T08:00:49.173Z,36.22
2023-02-01T08:03:21.270Z,32.55
2023-02-01T08:05:51.301Z,23.70
2023-02-01T08:11:28.008Z,28.42
2023-02-01T08:13:56.580Z,31.65
2023-02-01T08:16:29.688Z,41.17
2023-02-01T08:19:02.933Z,36.92
2023-02-01T08:21:39.109Z,23.77
2023-02-01T08:24:09.766Z,37.03
2023-02-01T08:26:40.124Z,45.70
2023-02-01T08:29:11.564Z,43.30
2023-02-01T08:31:44.835Z,27.48
2023-02-01T08:34:13.996Z,44.42
2023-02-01T08:39:29.552Z,36.20
2023-02-01T08:42:18.204Z,32.05
2023-02-01T08:44:45.708Z,35.50
2023-02-01T08:47:14.898Z,30.77
2023-02-01T08:50:16.743Z,25.40
2023-02-01T08:52:59.940Z,25.98
2023-02-01T08:55:31.340Z,25.40
2023-02-01T08:58:01.763Z,26.02
2023-02-01T09:00:28.980Z,27.75
2023-02-01T09:03:14.704Z,32.53
2023-02-01T09:05:54.063Z,30.20
2023-02-01T09:08:25.726Z,25.23
2023-02-01T09:11:11.506Z,18.00
2023-02-01T09:13:44.528Z,21.88
2023-02-01T09:16:29.177Z,19.55
2023-02-01T09:19:23.881Z,21.63
2023-02-01T09:21:50.696Z,27.92
2023-02-01T09:27:04.851Z,24.15
2023-02-01T09:29:37.524Z,31.27
2023-02-01T09:32:12.387Z,24.92
2023-02-01T09:34:50.607Z,36.28
2023-02-01T09:37:22.947Z,23.90
2023-02-01T09:40:03.571Z,16.75
2023-02-01T09:45:50.389Z,21.95
2023-02-01T09:48:33.836Z,18.27
2023-02-01T09:51:06.173Z,13.77
2023-02-01T09:53:42.291Z,22.70
2023-02-01T09:56:31.687Z,24.23
2023-02-01T09:59:41.346Z,21.27
2023-02-01T10:02:31.470Z,20.58
2023-02-01T10:05:02.333Z,20.50
2023-02-01T10:07:51.112Z,20.25
2023-02-01T10:10:51.000Z,19.00
2023-02-01T10:13:46.644Z,16.90
2023-02-01T10:17:13.332Z,16.27
2023-02-01T10:20:22.169Z,16.67
2023-02-01T10:26:22.686Z,14.52
2023-02-01T10:29:04.478Z,8.43
2023-02-01T10:31:43.061Z,11.25
2023-02-01T10:34:38.591Z,10.55
2023-02-01T10:37:27.669Z,10.98
2023-02-01T10:39:59.304Z,18.02
2023-02-01T10:42:32.935Z,11.23
2023-02-01T10:48:06.443Z,9.90
2023-02-01T10:50:41.802Z,6.75
2023-02-01T10:53:39.440Z,9.00
2023-02-01T10:56:11.794Z,12.10
2023-02-01T10:58:49.435Z,8.48
2023-02-01T11:01:23.821Z,7.57
2023-02-01T11:04:28.733Z,7.53
2023-02-01T11:07:27.959Z,11.23
2023-02-01T11:10:09.169Z,7.10
2023-02-01T11:12:39.926Z,13.45
2023-02-01T11:15:15.856Z,8.65
2023-02-01T11:17:52.283Z,6.82
2023-02-01T11:20:41.253Z,12.00
2023-02-01T11:23:31.832Z,10.70
2023-02-01T11:26:13.311Z,6.30
2023-02-01T11:28:59.744Z,7.88
2023-02-01T11:31:41.688Z,8.95
2023-02-01T11:37:58.481Z,7.43
2023-02-01T11:40:47.863Z,8.18
2023-02-01T11:43:38.462Z,8.80
2023-02-01T11:46:27.896Z,9.32
2023-02-01T11:49:32.090Z,10.95
2023-02-01T11:52:36.849Z,6.63
2023-02-01T11:55:28.206Z,8.98
2023-02-01T11:58:38.072Z,7.88
2023-02-01T12:01:14.298Z,8.00
2023-02-01T12:04:16.049Z,9.40
2023-02-01T12:06:58.754Z,11.15
2023-02-01T12:10:21.610Z,7.50
2023-02-01T12:15:59.645Z,12.23
2023-02-01T12:18:52.132Z,6.40
2023-02-01T12:21:51.642Z,20.33
2023-02-01T12:24:32.428Z,6.82
2023-02-01T12:27:28.964Z,12.40
2023-02-01T12:30:16.629Z,5.70
2023-02-01T12:33:19.512Z,7.82
2023-02-01T12:36:19.720Z,8.18
2023-02-01T12:39:12.277Z,7.47
2023-02-01T12:42:19.673Z,6.82
2023-02-01T12:45:19.816Z,8.35
2023-02-01T12:51:24.620Z,10.35
2023-02-01T12:54:03.999Z,8.05
2023-02-01T12:57:07.023Z,6.15
2023-02-01T13:00:06.686Z,6.45
2023-02-01T13:06:40.766Z,25.50
2023-02-01T13:09:51.131Z,10.70
2023-02-01T13:12:50.801Z,14.38
2023-02-01T13:15:34.726Z,13.73
2023-02-01T13:18:09.747Z,12.25
2023-02-01T13:20:48.276Z,8.80
2023-02-01T13:23:38.685Z,14.88
2023-02-01T13:26:09.926Z,14.55
2023-02-01T13:29:16.465Z,25.90
2023-02-01T13:32:02.051Z,17.08
2023-02-01T13:35:07.226Z,16.80
2023-02-01T13:41:40.255Z,9.02
2023-02-01T13:44:45.420Z,7.88
2023-02-01T13:47:54.678Z,8.63
2023-02-01T13:50:44.136Z,16.52
2023-02-01T13:56:49.775Z,12.52
2023-02-01T13:59:46.442Z,6.13
2023-02-01T14:02:48.505Z,7.85
2023-02-01T14:05:46.530Z,6.40
2023-02-01T14:08:42.276Z,18.33
2023-02-01T14:11:50.057Z,6.40
2023-02-01T14:14:17.236Z,10.63
2023-02-01T14:17:05.905Z,7.47
2023-02-01T14:19:39.161Z,19.02
2023-02-01T14:22:45.042Z,23.88
2023-02-01T14:25:24.421Z,19.38
2023-02-01T14:28:00.844Z,22.13
2023-02-01T14:30:36.331Z,15.48
2023-02-01T14:33:21.733Z,22.38
2023-02-01T14:36:27.292Z,13.52
2023-02-01T14:39:37.086Z,17.40
2023-02-01T14:43:23.402Z,16.70
2023-02-01T14:46:22.808Z,16.05
2023-02-01T14:49:02.279Z,18.05
2023-02-01T14:51:40.139Z,20.83
2023-02-01T14:54:15.221Z,17.33
2023-02-01T14:56:54.913Z,12.25
2023-02-01T14:59:26.731Z,20.30
2023-02-01T15:02:08.507Z,15.27
2023-02-01T15:04:54.637Z,15.18
2023-02-01T15:07:34.180Z,17.10
2023-02-01T15:17:17.729Z,17.75
2023-02-01T15:23:18.061Z,23.65
2023-02-01T15:32:11.027Z,17.75
2023-02-01T15:34:59.177Z,19.10
2023-02-01T15:41:36.381Z,10.88
2023-02-01T15:44:42.214Z,12.80
2023-02-01T15:47:42.419Z,17.20
2023-02-01T15:50:31.924Z,26.38
2023-02-01T15:53:59.090Z,16.55
2023-02-01T15:57:08.181Z,15.65
2023-02-01T16:00:22.597Z,16.93
2023-02-01T16:04:03.719Z,11.23
2023-02-01T16:07:44.034Z,15.45
2023-02-01T16:10:40.426Z,13.73
2023-02-01T16:13:39.587Z,13.23
2023-02-01T16:16:50.568Z,13.02
2023-02-01T16:20:01.690Z,11.45
2023-02-01T16:23:00.431Z,14.88
2023-02-01T16:25:46.333Z,11.98
2023-02-01T16:31:55.116Z,12.77
2023-02-01T16:34:59.381Z,13.40
2023-02-01T16:37:43.101Z,14.13
2023-02-01T16:40:54.092Z,13.52
2023-02-01T16:44:07.179Z,11.38
2023-02-01T16:47:13.264Z,16.73
2023-02-01T16:50:08.273Z,13.18
2023-02-01T16:53:15.799Z,7.72
2023-02-01T16:56:17.952Z,21.05
2023-02-01T16:58:58.617Z,10.95
2023-02-01T17:01:41.667Z,14.35
2023-02-01T17:04:21.980Z,14.47
2023-02-01T17:07:26.190Z,14.27
2023-02-01T17:13:54.765Z,11.45
2023-02-01T17:16:54.286Z,17.70
2023-02-01T17:22:41.686Z,7.97
2023-02-01T17:25:27.486Z,9.40
2023-02-01T17:28:24.971Z,15.18
2023-02-01T17:30:59.338Z,10.68
2023-02-01T17:33:36.639Z,14.00
2023-02-01T17:36:14.663Z,17.10
2023-02-01T17:41:40.166Z,12.13
2023-02-01T17:44:17.319Z,12.07
2023-02-01T17:47:01.557Z,18.35
2023-02-01T17:49:56.745Z,11.55
2023-02-01T17:52:32.102Z,13.35
2023-02-01T17:55:31.999Z,14.45
2023-02-01T17:58:10.267Z,12.95
2023-02-01T18:01:08.083Z,14.00
2023-02-01T18:03:48.501Z,11.73
2023-02-01T18:06:44.013Z,13.75
2023-02-01T18:09:31.105Z,12.57
2023-02-01T18:15:28.933Z,13.02
2023-02-01T18:18:39.196Z,14.80
2023-02-01T18:24:08.037Z,12.65
2023-02-01T18:26:44.233Z,17.15
2023-02-01T18:29:26.580Z,15.90
2023-02-01T18:32:15.859Z,13.02
2023-02-01T18:35:05.776Z,22.70
2023-02-01T18:41:30.570Z,16.13
2023-02-01T18:44:03.656Z,15.50
2023-02-01T18:46:33.374Z,22.05
2023-02-01T18:49:14.527Z,14.52
2023-02-01T18:54:58.776Z,14.38
2023-02-01T18:57:45.336Z,16.83
2023-02-01T19:00:27.406Z,13.60
2023-02-01T19:03:20.256Z,19.58
2023-02-01T19:06:18.742Z,18.83
2023-02-01T19:08:59.247Z,18.73
2023-02-01T19:11:51.381Z,19.92
2023-02-01T19:14:39.382Z,15.15
2023-02-01T19:17:10.203Z,20.73
2023-02-01T19:20:00.338Z,13.70
2023-02-01T19:22:43.090Z,19.42
2023-02-01T19:25:20.996Z,16.73
2023-02-01T19:28:00.667Z,23.83
2023-02-01T19:31:07.070Z,19.10
2023-02-01T19:33:57.293Z,24.15
2023-02-01T19:36:44.654Z,22.67
2023-02-01T19:39:30.173Z,22.98
2023-02-01T19:42:30.817Z,21.00
2023-02-01T19:45:16.716Z,26.85
2023-02-01T19:48:07.970Z,28.70
2023-02-01T19:50:49.105Z,38.00
2023-02-01T19:53:39.141Z,19.67
2023-02-01T19:56:28.365Z,18.55
2023-02-01T20:02:06.783Z,25.70
2023-02-01T20:04:36.948Z,29.02
2023-02-01T20:10:09.997Z,28.15
2023-02-01T20:12:49.992Z,36.33
2023-02-01T20:15:20.403Z,36.85
2023-02-01T20:17:58.272Z,26.95
2023-02-01T20:21:41.120Z,29.30
2023-02-01T20:27:13.001Z,26.42
2023-02-01T20:30:12.119Z,30.42
2023-02-01T20:35:57.236Z,30.67
2023-02-01T20:38:33.044Z,30.70
2023-02-01T20:41:22.502Z,41.42
2023-02-01T20:44:11.476Z,34.63
2023-02-01T20:46:56.133Z,30.13
2023-02-01T20:49:43.673Z,32.50
2023-02-01T20:52:39.310Z,26.98
2023-02-01T20:55:27.695Z,31.58
2023-02-01T20:58:11.146Z,31.98
2023-02-01T21:00:46.493Z,24.90
2023-02-01T21:03:32.341Z,27.38
2023-02-01T21:06:23.802Z,27.88
2023-02-01T21:08:59.655Z,45.40
2023-02-01T21:11:46.950Z,27.25
2023-02-01T21:14:37.827Z,30.40
2023-02-01T21:17:25.986Z,27.65
2023-02-01T21:23:02.194Z,38.13
2023-02-01T21:25:32.686Z,21.95
2023-02-01T21:28:20.133Z,22.07
2023-02-01T21:31:18.391Z,21.95
2023-02-01T21:34:03.979Z,23.63
2023-02-01T21:36:48.865Z,15.05
2023-02-01T21:39:39.439Z,13.00
2023-02-01T21:42:34.870Z,16.33
2023-02-01T21:45:15.911Z,12.80
2023-02-01T21:48:00.804Z,15.20
2023-02-01T21:50:30.908Z,12.25
2023-02-01T21:53:05.119Z,14.95
2023-02-01T21:55:49.695Z,19.27
2023-02-01T21:58:24.405Z,19.50
2023-02-01T22:01:01.119Z,16.75
2023-02-01T22:03:36.250Z,16.63
2023-02-01T22:06:07.145Z,15.85
2023-02-01T22:08:38.752Z,12.05
2023-02-01T22:11:09.008Z,16.13
2023-02-01T22:13:39.898Z,17.60
2023-02-01T22:16:07.418Z,16.65
2023-02-01T22:18:40.901Z,16.25
2023-02-01T22:21:08.437Z,13.73
2023-02-01T22:23:35.589Z,13.80
2023-02-01T22:26:06.752Z,13.32
2023-02-01T22:28:42.412Z,16.02
2023-02-01T22:31:21.921Z,16.08
2023-02-01T22:33:59.346Z,11.05
2023-02-01T22:36:36.485Z,14.60
2023-02-01T22:39:10.294Z,12.15
2023-02-01T22:41:48.333Z,14.95
2023-02-01T22:44:29.845Z,12.13
2023-02-01T22:47:02.833Z,10.68
2023-02-01T22:49:33.131Z,16.38
2023-02-01T22:52:06.372Z,16.65
2023-02-01T22:54:43.627Z,13.23
2023-02-01T22:57:20.787Z,16.35
2023-02-01T22:59:58.067Z,15.50
2023-02-01T23:02:37.409Z,16.30
2023-02-01T23:05:05.791Z,21.20
2023-02-01T23:07:38.583Z,15.70
2023-02-01T23:10:09.194Z,16.83
2023-02-01T23:12:36.498Z,17.92
2023-02-01T23:15:08.659Z,12.85
2023-02-01T23:17:40.042Z,15.55
2023-02-01T23:20:17.869Z,14.63
2023-02-01T23:22:49.848Z,14.70
2023-02-01T23:25:22.988Z,12.50
2023-02-01T23:27:54.067Z,11.95
2023-02-01T23:30:33.252Z,17.38
2023-02-01T23:33:09.148Z,16.10
2023-02-01T23:35:38.188Z,14.45
2023-02-01T23:38:10.873Z,16.45
2023-02-01T23:40:38.335Z,16.47
2023-02-01T23:46:08.617Z,15.48
2023-02-01T23:48:42.368Z,20.02
2023-02-01T23:51:15.481Z,17.17
2023-02-01T23:53:52.279Z,18.83
2023-02-01T23:56:39.571Z,21.30
2023-02-01T23:59:29.884Z,22.88
